Time;durP1;ratioP1;P1;durP2;ratioP2;P2;SDS_P1;SDS_P2;PMS_P1;PMS_P2;Temp;Humidity;BMP_temperature;BMP_pressure;BME280_temperature;BME280_humidity;BME280_pressure;Samples;Min_cycle;Max_cycle;Signal;HPM_P1;HPM_P2
2022/03/29 00:08:49;;;;;;;11.37;4.90;;;7.80;99.90;;;;;;20979635;28;20028;-75
2022/03/29 00:18:50;;;;;;;7.67;4.17;;;7.50;99.90;;;;;;20978883;28;20097;-75
2022/03/29 00:28:52;;;;;;;9.47;5.40;;;7.00;99.90;;;;;;20998898;28;20067;-75
2022/03/29 00:38:54;;;;;;;10.70;4.88;;;6.90;99.90;;;;;;20977128;28;20433;-75
2022/03/29 00:48:55;;;;;;;10.40;5.13;;;7.00;99.90;;;;;;20978376;28;20043;-75
2022/03/29 00:58:56;;;;;;;9.30;5.10;;;7.10;99.90;;;;;;20958977;28;20040;-75
2022/03/29 01:08:57;;;;;;;12.40;5.17;;;7.10;99.90;;;;;;20993896;28;20490;-74
2022/03/29 01:18:59;;;;;;;9.57;4.65;;;7.00;99.90;;;;;;20973702;28;20032;-75
2022/03/29 01:29:01;;;;;;;10.20;5.20;;;6.90;99.90;;;;;;20991633;28;20042;-75
2022/03/29 01:39:03;;;;;;;12.13;6.43;;;6.70;99.90;;;;;;20973264;28;20043;-74
2022/03/29 01:49:05;;;;;;;12.95;6.30;;;6.50;99.90;;;;;;20972848;28;20479;-75
2022/03/29 01:59:08;;;;;;;10.20;5.72;;;6.40;99.90;;;;;;20972133;28;20036;-75
2022/03/29 02:09:13;;;;;;;10.43;5.72;;;6.60;99.90;;;;;;20990151;28;20040;-75
2022/03/29 02:19:13;;;;;;;20.40;7.95;;;6.70;99.90;;;;;;20989347;28;20123;-75
2022/03/29 02:29:14;;;;;;;14.83;7.13;;;6.90;99.90;;;;;;20986253;28;20482;-75
2022/03/29 02:39:15;;;;;;;12.37;6.73;;;6.90;99.90;;;;;;20987003;28;20499;-75
2022/03/29 02:49:16;;;;;;;13.47;5.77;;;6.90;99.90;;;;;;21003991;28;20025;-75
2022/03/29 02:59:17;;;;;;;15.90;8.40;;;6.70;99.90;;;;;;21015815;23;20049;-75
2022/03/29 03:09:18;;;;;;;14.00;8.13;;;6.80;99.90;;;;;;21002254;28;20119;-75
2022/03/29 03:19:19;;;;;;;14.77;7.13;;;6.50;99.90;;;;;;21001625;28;20127;-75
2022/03/29 03:29:20;;;;;;;12.67;6.93;;;6.40;99.90;;;;;;21001037;28;20402;-75
2022/03/29 03:39:20;;;;;;;14.57;7.60;;;6.30;99.90;;;;;;20999569;28;20028;-75
2022/03/29 03:49:22;;;;;;;13.57;6.93;;;6.10;99.90;;;;;;20988016;28;20104;-75
2022/03/29 03:59:23;;;;;;;13.45;7.28;;;5.90;99.90;;;;;;20874048;28;20495;-75
2022/03/29 04:09:25;;;;;;;17.20;8.13;;;5.70;99.90;;;;;;20979892;28;20028;-75
2022/03/29 04:19:25;;;;;;;17.20;7.95;;;5.30;99.90;;;;;;20988037;28;20402;-75
2022/03/29 04:29:27;;;;;;;24.87;8.47;;;4.80;99.90;;;;;;20990794;28;20039;-74
2022/03/29 04:39:27;;;;;;;;;;;5.10;99.90;;;;;;20991956;28;20673;-75
2022/03/29 04:49:28;;;;;;;22.15;8.50;;;5.50;99.90;;;;;;20971866;28;19908;-75
2022/03/29 04:59:29;;;;;;;16.67;8.20;;;5.70;99.90;;;;;;20916601;28;1132931;-74
2022/03/29 05:09:30;;;;;;;15.33;7.53;;;5.50;99.90;;;;;;20993086;28;20363;-74
2022/03/29 05:19:31;;;;;;;15.07;7.63;;;5.00;99.90;;;;;;20992373;28;20028;-75
2022/03/29 05:29:31;;;;;;;16.50;8.00;;;4.90;99.90;;;;;;20992414;28;20122;-75
2022/03/29 05:39:32;;;;;;;15.20;7.30;;;5.10;99.90;;;;;;20991545;28;20024;-75
2022/03/29 05:49:33;;;;;;;20.60;8.93;;;4.80;99.90;;;;;;20973289;28;20040;-75
2022/03/29 05:59:34;;;;;;;15.10;8.20;;;5.40;99.90;;;;;;20998988;28;20071;-75
2022/03/29 06:09:36;;;;;;;18.38;7.88;;;5.40;99.90;;;;;;20999229;28;20064;-75
2022/03/29 06:19:36;;;;;;;14.10;8.00;;;5.80;99.90;;;;;;21000333;28;20031;-76
2022/03/29 06:29:37;;;;;;;20.07;8.30;;;6.10;99.90;;;;;;21017741;28;20399;-76
2022/03/29 06:39:38;;;;;;;14.50;7.93;;;6.50;99.90;;;;;;21017558;28;20032;-76
2022/03/29 06:49:39;;;;;;;18.47;9.07;;;6.80;99.90;;;;;;21016987;28;20028;-77
2022/03/29 06:59:40;;;;;;;18.73;9.10;;;7.30;99.90;;;;;;21001203;28;20082;-76
2022/03/29 07:20:00;;;;;;;19.02;8.88;;;8.30;99.90;;;;;;21012494;28;20040;-78
2022/03/29 07:30:03;;;;;;;18.80;9.00;;;8.70;99.90;;;;;;20994908;28;20036;-77
2022/03/29 07:40:05;;;;;;;25.30;10.32;;;8.80;99.90;;;;;;21005694;28;20032;-78
2022/03/29 07:50:07;;;;;;;21.80;10.45;;;8.60;99.90;;;;;;20991628;28;20487;-78
2022/03/29 08:10:31;;;;;;;21.65;10.50;;;9.10;99.90;;;;;;21007244;28;20037;-76
2022/03/29 08:20:32;;;;;;;22.23;12.13;;;9.60;99.90;;;;;;21003085;28;20052;-77
2022/03/29 08:30:34;;;;;;;21.80;11.30;;;10.30;99.90;;;;;;20996693;28;20052;-76
2022/03/29 08:40:35;;;;;;;20.45;10.63;;;11.10;99.90;;;;;;20995999;28;20447;-77
2022/03/29 08:50:38;;;;;;;25.07;10.70;;;12.10;99.90;;;;;;20995663;28;20036;-77
2022/03/29 09:00:40;;;;;;;23.33;11.20;;;13.60;99.90;;;;;;20986761;22;20056;-75
2022/03/29 09:10:49;;;;;;;26.40;11.48;;;13.90;99.90;;;;;;20950456;28;20036;-75
2022/03/29 09:21:14;;;;;;;22.00;11.27;;;14.30;99.90;;;;;;20992128;28;20033;-75
2022/03/29 09:31:22;;;;;;;23.10;10.20;;;15.00;99.90;;;;;;20992110;28;20479;-74
2022/03/29 09:41:26;;;;;;;25.10;10.85;;;15.10;99.90;;;;;;20990945;28;20029;-75
2022/03/29 09:51:48;;;;;;;23.17;11.18;;;14.60;99.90;;;;;;20972698;28;20079;-75
2022/03/29 10:01:55;;;;;;;22.20;10.60;;;15.70;99.90;;;;;;20991175;28;20098;-75
2022/03/29 10:12:07;;;;;;;30.40;12.57;;;17.00;99.90;;;;;;20989658;28;20483;-74
2022/03/29 10:22:08;;;;;;;23.60;11.63;;;16.10;99.90;;;;;;20971369;28;20090;-75
2022/03/29 10:32:10;;;;;;;24.77;11.10;;;17.40;99.90;;;;;;20988997;28;20393;-74
2022/03/29 10:42:39;;;;;;;21.33;11.73;;;17.80;99.90;;;;;;20989523;28;20036;-75
2022/03/29 10:52:45;;;;;;;23.83;12.73;;;18.90;99.90;;;;;;21003637;28;20422;-75
2022/03/29 11:03:15;;;;;;;29.70;12.95;;;18.60;99.90;;;;;;20961801;28;20040;-75
2022/03/29 11:13:34;;;;;;;30.63;14.10;;;18.60;99.90;;;;;;20919301;28;20037;-74
2022/03/29 11:23:45;;;;;;;28.83;13.07;;;18.30;99.90;;;;;;20918545;28;20028;-75
2022/03/29 11:33:49;;;;;;;26.08;11.48;;;18.50;99.90;;;;;;20919270;28;20546;-75
2022/03/29 11:43:59;;;;;;;24.65;10.73;;;20.20;97.80;;;;;;20917310;28;20395;-75
2022/03/29 11:54:00;;;;;;;19.90;9.68;;;21.00;95.60;;;;;;20898396;28;20096;-74
2022/03/29 12:04:03;;;;;;;26.17;11.03;;;21.30;90.40;;;;;;20914636;28;20072;-74
2022/03/29 12:14:12;;;;;;;25.25;11.07;;;21.40;94.20;;;;;;20914839;28;20028;-75
2022/03/29 12:24:14;;;;;;;19.25;9.05;;;21.30;90.20;;;;;;20913281;28;20029;-74
2022/03/29 12:34:21;;;;;;;20.90;8.38;;;21.30;90.90;;;;;;20913405;28;20368;-74
2022/03/29 12:44:42;;;;;;;24.05;7.97;;;21.10;82.60;;;;;;20912811;28;20039;-74
2022/03/29 12:54:51;;;;;;;34.77;7.97;;;20.60;85.30;;;;;;20911833;28;20029;-74
2022/03/29 13:04:58;;;;;;;36.20;5.75;;;19.70;75.50;;;;;;20894831;28;20402;-74
2022/03/29 13:15:00;;;;;;;23.98;6.03;;;19.20;75.50;;;;;;20913454;28;20056;-73
2022/03/29 13:25:01;;;;;;;;;;;18.90;76.50;;;;;;20912410;28;20035;-75
2022/03/29 13:35:01;;;;;;;19.47;6.83;;;19.00;75.30;;;;;;20909817;28;19963;-74
2022/03/29 13:45:03;;;;;;;23.73;6.77;;;18.90;76.30;;;;;;20908243;28;20267;-74
2022/03/29 13:55:04;;;;;;;23.52;6.18;;;18.80;77.50;;;;;;20907375;28;20025;-74
2022/03/29 14:05:05;;;;;;;21.43;6.80;;;18.80;81.20;;;;;;20938507;28;20040;-74
2022/03/29 14:15:08;;;;;;;17.93;6.37;;;18.90;81.50;;;;;;20824267;28;20029;-74
2022/03/29 14:25:09;;;;;;;32.70;7.63;;;19.00;83.90;;;;;;20835678;28;20029;-74
2022/03/29 14:35:10;;;;;;;21.38;7.07;;;18.70;84.10;;;;;;20838346;28;20112;-74
2022/03/29 14:45:11;;;;;;;24.43;6.73;;;18.70;84.90;;;;;;20839495;28;20025;-74
2022/03/29 14:55:16;;;;;;;36.00;7.37;;;18.20;82.20;;;;;;20902282;28;20039;-74
2022/03/29 15:05:17;;;;;;;38.28;7.13;;;18.60;83.10;;;;;;20985639;23;20098;-77
2022/03/29 15:15:18;;;;;;;29.63;8.47;;;18.50;84.90;;;;;;20976613;28;20044;-77
2022/03/29 15:25:19;;;;;;;33.30;7.20;;;18.30;83.40;;;;;;20925643;28;20045;-76
2022/03/29 15:35:20;;;;;;;34.30;6.87;;;17.90;84.40;;;;;;20904009;28;20662;-77
2022/03/29 15:45:21;;;;;;;31.13;7.37;;;17.80;85.40;;;;;;20927064;28;20383;-76
2022/03/29 15:55:22;;;;;;;35.83;6.87;;;17.90;85.30;;;;;;20919602;28;20041;-77
2022/03/29 16:05:23;;;;;;;22.27;7.40;;;17.60;86.00;;;;;;20923678;28;20039;-74
2022/03/29 16:15:24;;;;;;;39.77;7.40;;;17.40;86.20;;;;;;20911697;28;20033;-75
2022/03/29 16:25:24;;;;;;;37.60;5.73;;;17.30;85.50;;;;;;20930642;28;20091;-77
2022/03/29 16:35:25;;;;;;;21.07;6.37;;;17.20;85.60;;;;;;20957830;28;20077;-79
2022/03/29 16:45:26;;;;;;;32.50;7.33;;;17.10;87.20;;;;;;20930485;28;20528;-75
2022/03/29 16:55:27;;;;;;;24.77;7.23;;;17.10;88.40;;;;;;20961218;28;20400;-78
2022/03/29 17:05:29;;;;;;;26.97;6.30;;;16.80;87.80;;;;;;20931985;28;20036;-78
2022/03/29 17:15:30;;;;;;;25.02;6.28;;;16.60;89.00;;;;;;20913145;28;20039;-77
2022/03/29 17:25:31;;;;;;;35.20;6.63;;;16.40;89.30;;;;;;20906654;28;20128;-77
2022/03/29 17:35:33;;;;;;;20.77;6.07;;;16.10;90.40;;;;;;20921149;28;20123;-76
2022/03/29 17:45:34;;;;;;;;;;;16.10;90.10;;;;;;20913417;28;20330;-78
2022/03/29 17:55:35;;;;;;;24.35;5.78;;;15.90;90.60;;;;;;20922662;28;19920;-78
2022/03/29 18:05:36;;;;;;;30.53;6.27;;;15.80;91.20;;;;;;20981641;28;20044;-75
2022/03/29 18:15:38;;;;;;;32.90;6.70;;;15.50;92.30;;;;;;20977543;28;20128;-77
2022/03/29 18:25:39;;;;;;;31.55;6.25;;;15.10;93.40;;;;;;20908491;28;20036;-76
2022/03/29 18:35:40;;;;;;;28.40;5.93;;;14.80;95.10;;;;;;20887604;28;20052;-77
2022/03/29 18:45:43;;;;;;;22.80;7.17;;;14.60;94.80;;;;;;20893203;28;20029;-76
2022/03/29 18:55:44;;;;;;;32.30;8.57;;;14.70;94.30;;;;;;20891348;28;20094;-76
2022/03/29 19:05:45;;;;;;;35.30;11.43;;;14.30;95.60;;;;;;20889168;28;20480;-77
2022/03/29 19:15:46;;;;;;;28.63;6.67;;;13.80;98.30;;;;;;20908658;28;20041;-77
2022/03/29 19:25:49;;;;;;;43.57;7.73;;;13.30;98.50;;;;;;20930202;28;20050;-78
2022/03/29 19:35:50;;;;;;;32.10;8.23;;;13.20;99.10;;;;;;20975441;28;20417;-76
2022/03/29 19:45:51;;;;;;;25.20;7.93;;;13.00;99.70;;;;;;20951491;28;20202;-76
2022/03/29 19:56:10;;;;;;;38.10;8.75;;;13.10;99.90;;;;;;20897275;28;20831;-76
2022/03/29 20:06:11;;;;;;;26.80;8.77;;;12.90;99.90;;;;;;20901810;28;20079;-77
2022/03/29 20:16:12;;;;;;;49.13;8.57;;;12.60;99.90;;;;;;20903760;28;20511;-78
2022/03/29 20:26:12;;;;;;;37.30;7.03;;;12.60;99.90;;;;;;20901722;28;20029;-78
2022/03/29 20:36:14;;;;;;;37.27;8.13;;;12.50;99.90;;;;;;20896974;28;20033;-77
2022/03/29 20:46:17;;;;;;;32.90;8.07;;;12.10;99.90;;;;;;20893680;28;20044;-77
2022/03/29 20:56:18;;;;;;;33.05;7.38;;;12.00;99.90;;;;;;20848991;28;20040;-77
2022/03/29 21:06:19;;;;;;;35.23;7.77;;;11.90;99.90;;;;;;20842766;23;20050;-74
2022/03/29 21:16:19;;;;;;;26.07;6.33;;;11.50;99.90;;;;;;20827602;28;20033;-73
2022/03/29 21:26:22;;;;;;;44.17;10.93;;;11.90;99.90;;;;;;20827018;28;20487;-74
2022/03/29 21:36:23;;;;;;;34.58;7.95;;;12.00;99.90;;;;;;20830789;28;20029;-73
2022/03/29 21:46:23;;;;;;;30.73;7.37;;;11.50;99.90;;;;;;20826133;28;20025;-74
2022/03/29 21:56:25;;;;;;;39.67;9.33;;;11.60;99.90;;;;;;20825434;28;20037;-74
2022/03/29 22:06:45;;;;;;;28.60;7.80;;;11.50;99.90;;;;;;20824814;28;20049;-74
2022/03/29 22:16:46;;;;;;;30.10;6.85;;;11.50;99.90;;;;;;20824444;28;20064;-72
2022/03/29 22:26:47;;;;;;;27.50;7.03;;;11.30;99.90;;;;;;20824198;28;20025;-74
2022/03/29 22:36:47;;;;;;;41.63;7.33;;;11.00;99.90;;;;;;20824035;28;20033;-75
2022/03/29 22:46:48;;;;;;;29.13;6.83;;;11.10;99.90;;;;;;20836404;28;20064;-74
2022/03/29 23:07:09;;;;;;;33.75;7.78;;;11.00;99.90;;;;;;20838390;28;20033;-73
2022/03/29 23:17:10;;;;;;;51.03;7.43;;;10.70;99.90;;;;;;20837126;28;20044;-74
2022/03/29 23:27:11;;;;;;;32.53;7.93;;;10.50;99.90;;;;;;20839131;28;20030;-74
2022/03/29 23:37:12;;;;;;;;;;;10.80;99.90;;;;;;20818804;28;20076;-74
2022/03/29 23:47:13;;;;;;;36.20;6.75;;;11.00;99.90;;;;;;20817288;28;19909;-74
2022/03/29 23:57:14;;;;;;;25.83;6.73;;;10.80;99.90;;;;;;20833277;28;20129;-74
